KMFE

Mc Allen Miller International Airport

Mc Allen, Texas, USA
METAR KMFE 221953Z 33006KT 5SM -RA BR OVC017 19/17 A3006 RMK AO2 SLP177 P0001 T01940172
Observed Flight Rules
Oct-22 @ 19:53 UTC (54 minutes ago) Marginal Visual Flight Rules
Wind Visibility Clouds Conditions
330° at 6 knots 5 miles
  • Overcast at 1,700' AGL
  • Light Rain
  • Mist
Temperatures Readings Precipitation
Current 19°C / 66°F
Dewpoint 17°C / 63°F
Humidity 88%
Altimeter 30.06" Hg
Pressure 1017.7 hPa
Elevation 38
Current Rain 0.01
METAR KMFE 221953Z 33006KT 5SM -RA BR OVC017 19/17 A3006 RMK AO2 SLP177 P0001 T01940172
Observed Flight Rules
Oct-22 @ 19:53 UTC
(54 minutes ago)
MVFR
Wind Visibility
330° at 6 knots 5 miles
Clouds
  • Overcast at 1,700' AGL
Conditions
  • Light Rain
  • Mist
Temperature Dewpoint
19°C / 66°F 17°C / 63°F
Humidity Altimeter Pressure
88% 30.06" Hg 1017.7 hPa
Current Rain
0.01